sensor_id;sensor_type;location;lat;lon;timestamp;pressure;altitude;pressure_sealevel;temperature;humidity
40592;BME280;26301;42.832;23.918;2023-02-13T00:01:34;94797.25;;;-2.29;85.83
40592;BME280;26301;42.832;23.918;2023-02-13T00:04:00;94808.53;;;-2.22;86.29
40592;BME280;26301;42.832;23.918;2023-02-13T00:06:26;94808.19;;;-2.28;86.45
40592;BME280;26301;42.832;23.918;2023-02-13T00:08:51;94820.38;;;-2.22;86.90
40592;BME280;26301;42.832;23.918;2023-02-13T00:11:17;94805.53;;;-2.38;86.49
40592;BME280;26301;42.832;23.918;2023-02-13T00:13:45;94827.19;;;-2.34;86.69
40592;BME280;26301;42.832;23.918;2023-02-13T00:16:11;94795.88;;;-2.44;86.95
40592;BME280;26301;42.832;23.918;2023-02-13T00:18:37;94830.84;;;-2.38;87.12
40592;BME280;26301;42.832;23.918;2023-02-13T00:21:06;94824.50;;;-2.44;87.25
40592;BME280;26301;42.832;23.918;2023-02-13T00:23:33;94813.47;;;-2.54;87.46
40592;BME280;26301;42.832;23.918;2023-02-13T00:26:00;94830.63;;;-2.46;87.58
40592;BME280;26301;42.832;23.918;2023-02-13T00:28:26;94827.94;;;-2.56;87.73
40592;BME280;26301;42.832;23.918;2023-02-13T00:30:51;94825.09;;;-2.63;88.17
40592;BME280;26301;42.832;23.918;2023-02-13T00:33:17;94824.63;;;-2.57;87.95
40592;BME280;26301;42.832;23.918;2023-02-13T00:35:43;94838.69;;;-2.53;88.11
40592;BME280;26301;42.832;23.918;2023-02-13T00:38:09;94812.88;;;-2.69;88.05
40592;BME280;26301;42.832;23.918;2023-02-13T00:40:35;94833.00;;;-2.56;87.60
40592;BME280;26301;42.832;23.918;2023-02-13T00:43:00;94825.56;;;-2.58;88.10
40592;BME280;26301;42.832;23.918;2023-02-13T00:45:26;94817.16;;;-2.69;88.17
40592;BME280;26301;42.832;23.918;2023-02-13T00:47:52;94832.91;;;-2.66;88.11
40592;BME280;26301;42.832;23.918;2023-02-13T00:50:17;94836.25;;;-2.54;87.69
40592;BME280;26301;42.832;23.918;2023-02-13T00:52:43;94804.16;;;-2.76;87.60
40592;BME280;26301;42.832;23.918;2023-02-13T00:55:09;94813.69;;;-2.68;87.58
40592;BME280;26301;42.832;23.918;2023-02-13T00:57:34;94806.69;;;-2.76;87.92
40592;BME280;26301;42.832;23.918;2023-02-13T01:00:00;94795.75;;;-2.77;87.80
40592;BME280;26301;42.832;23.918;2023-02-13T01:02:26;94827.72;;;-2.53;87.60
40592;BME280;26301;42.832;23.918;2023-02-13T01:04:51;94821.53;;;-2.60;86.93
40592;BME280;26301;42.832;23.918;2023-02-13T01:07:17;94809.88;;;-2.74;87.34
40592;BME280;26301;42.832;23.918;2023-02-13T01:09:43;94830.72;;;-2.59;87.57
40592;BME280;26301;42.832;23.918;2023-02-13T01:12:09;94824.16;;;-2.73;87.52
40592;BME280;26301;42.832;23.918;2023-02-13T01:14:34;94839.78;;;-2.68;87.99
40592;BME280;26301;42.832;23.918;2023-02-13T01:17:00;94842.09;;;-2.65;87.92
40592;BME280;26301;42.832;23.918;2023-02-13T01:19:25;94826.00;;;-2.75;88.23
40592;BME280;26301;42.832;23.918;2023-02-13T01:21:51;94842.91;;;-2.64;88.79
40592;BME280;26301;42.832;23.918;2023-02-13T01:24:17;94839.47;;;-2.63;88.68
40592;BME280;26301;42.832;23.918;2023-02-13T01:26:43;94842.09;;;-2.65;88.55
40592;BME280;26301;42.832;23.918;2023-02-13T01:29:11;94831.88;;;-2.63;88.42
40592;BME280;26301;42.832;23.918;2023-02-13T01:31:37;94835.78;;;-2.59;89.09
40592;BME280;26301;42.832;23.918;2023-02-13T01:34:03;94835.66;;;-2.58;89.07
40592;BME280;26301;42.832;23.918;2023-02-13T01:36:29;94830.38;;;-2.66;89.08
40592;BME280;26301;42.832;23.918;2023-02-13T01:38:56;94810.47;;;-2.70;89.12
40592;BME280;26301;42.832;23.918;2023-02-13T01:41:23;94825.66;;;-2.70;89.11
40592;BME280;26301;42.832;23.918;2023-02-13T01:43:52;94822.19;;;-2.81;89.95
40592;BME280;26301;42.832;23.918;2023-02-13T01:46:22;94813.69;;;-2.80;90.08
40592;BME280;26301;42.832;23.918;2023-02-13T01:48:50;94803.81;;;-2.83;90.36
40592;BME280;26301;42.832;23.918;2023-02-13T01:51:32;94806.09;;;-2.80;90.32
40592;BME280;26301;42.832;23.918;2023-02-13T01:54:03;94811.97;;;-2.68;90.04
40592;BME280;26301;42.832;23.918;2023-02-13T01:56:36;94830.84;;;-2.49;89.64
40592;BME280;26301;42.832;23.918;2023-02-13T01:59:07;94818.75;;;-2.57;90.00
40592;BME280;26301;42.832;23.918;2023-02-13T02:01:34;94827.16;;;-2.45;89.49
40592;BME280;26301;42.832;23.918;2023-02-13T02:04:12;94814.41;;;-2.55;89.57
40592;BME280;26301;42.832;23.918;2023-02-13T02:06:46;94802.53;;;-2.66;89.67
40592;BME280;26301;42.832;23.918;2023-02-13T02:09:17;94793.81;;;-2.62;89.58
40592;BME280;26301;42.832;23.918;2023-02-13T02:12:21;94833.59;;;-2.41;89.86
40592;BME280;26301;42.832;23.918;2023-02-13T02:14:48;94816.72;;;-2.52;89.87
40592;BME280;26301;42.832;23.918;2023-02-13T02:17:15;94833.38;;;-2.38;89.80
40592;BME280;26301;42.832;23.918;2023-02-13T02:45:09;94829.34;;;-2.41;90.39
40592;BME280;26301;42.832;23.918;2023-02-13T02:47:51;94848.47;;;-2.37;91.11
40592;BME280;26301;42.832;23.918;2023-02-13T02:50:42;94843.72;;;-2.41;91.92
40592;BME280;26301;42.832;23.918;2023-02-13T02:53:20;94845.13;;;-2.37;91.59
40592;BME280;26301;42.832;23.918;2023-02-13T02:58:37;94834.31;;;-2.39;91.40
40592;BME280;26301;42.832;23.918;2023-02-13T03:01:26;94826.38;;;-2.46;91.43
40592;BME280;26301;42.832;23.918;2023-02-13T03:04:17;94843.03;;;-2.32;91.05
40592;BME280;26301;42.832;23.918;2023-02-13T03:07:06;94815.69;;;-2.49;91.39
40592;BME280;26301;42.832;23.918;2023-02-13T03:09:36;94834.63;;;-2.44;91.95
40592;BME280;26301;42.832;23.918;2023-02-13T03:12:24;94827.25;;;-2.47;92.28
40592;BME280;26301;42.832;23.918;2023-02-13T03:15:09;94821.53;;;-2.49;91.76
40592;BME280;26301;42.832;23.918;2023-02-13T03:17:37;94807.03;;;-2.58;91.60
40592;BME280;26301;42.832;23.918;2023-02-13T03:23:49;94823.38;;;-2.51;90.00
40592;BME280;26301;42.832;23.918;2023-02-13T03:32:27;94819.97;;;-2.96;90.49
40592;BME280;26301;42.832;23.918;2023-02-13T03:35:06;94798.78;;;-3.18;91.10
40592;BME280;26301;42.832;23.918;2023-02-13T03:38:02;94816.47;;;-3.18;91.45
40592;BME280;26301;42.832;23.918;2023-02-13T03:40:46;94841.31;;;-3.12;91.79
40592;BME280;26301;42.832;23.918;2023-02-13T03:43:38;94819.09;;;-3.31;92.49
40592;BME280;26301;42.832;23.918;2023-02-13T03:46:06;94833.84;;;-3.37;92.82
40592;BME280;26301;42.832;23.918;2023-02-13T03:48:36;94831.09;;;-3.46;93.30
40592;BME280;26301;42.832;23.918;2023-02-13T03:51:35;94832.56;;;-3.43;93.12
40592;BME280;26301;42.832;23.918;2023-02-13T03:54:15;94816.53;;;-3.66;92.75
40592;BME280;26301;42.832;23.918;2023-02-13T03:56:42;94811.78;;;-3.71;92.34
40592;BME280;26301;42.832;23.918;2023-02-13T03:59:29;94830.22;;;-3.81;94.11
40592;BME280;26301;42.832;23.918;2023-02-13T04:07:06;94838.22;;;-4.00;94.11
40592;BME280;26301;42.832;23.918;2023-02-13T04:09:37;94834.53;;;-4.07;95.17
40592;BME280;26301;42.832;23.918;2023-02-13T04:14:49;94833.03;;;-4.10;92.17
40592;BME280;26301;42.832;23.918;2023-02-13T04:17:32;94815.09;;;-4.31;91.65
40592;BME280;26301;42.832;23.918;2023-02-13T04:19:59;94822.78;;;-4.32;92.26
40592;BME280;26301;42.832;23.918;2023-02-13T04:22:25;94848.00;;;-4.32;92.11
40592;BME280;26301;42.832;23.918;2023-02-13T04:24:50;94820.97;;;-4.43;91.70
40592;BME280;26301;42.832;23.918;2023-02-13T04:27:16;94853.34;;;-4.37;91.12
40592;BME280;26301;42.832;23.918;2023-02-13T04:29:42;94838.31;;;-4.51;91.55
40592;BME280;26301;42.832;23.918;2023-02-13T04:32:09;94828.03;;;-4.61;92.21
40592;BME280;26301;42.832;23.918;2023-02-13T04:34:35;94848.22;;;-4.61;92.64
40592;BME280;26301;42.832;23.918;2023-02-13T04:37:01;94808.09;;;-4.77;91.29
40592;BME280;26301;42.832;23.918;2023-02-13T04:39:26;94830.28;;;-4.69;90.97
40592;BME280;26301;42.832;23.918;2023-02-13T04:41:52;94821.50;;;-4.89;92.68
40592;BME280;26301;42.832;23.918;2023-02-13T04:44:18;94834.00;;;-4.88;93.04
40592;BME280;26301;42.832;23.918;2023-02-13T04:46:44;94834.00;;;-4.88;92.50
40592;BME280;26301;42.832;23.918;2023-02-13T04:49:10;94812.91;;;-5.12;92.24
40592;BME280;26301;42.832;23.918;2023-02-13T04:51:36;94836.13;;;-4.94;92.29
40592;BME280;26301;42.832;23.918;2023-02-13T04:54:01;94831.88;;;-5.07;92.19
40592;BME280;26301;42.832;23.918;2023-02-13T04:56:27;94806.84;;;-5.22;91.52
40592;BME280;26301;42.832;23.918;2023-02-13T04:58:54;94827.34;;;-5.14;91.63
40592;BME280;26301;42.832;23.918;2023-02-13T05:01:20;94849.91;;;-5.00;91.23
40592;BME280;26301;42.832;23.918;2023-02-13T05:03:46;94835.50;;;-5.11;90.02
40592;BME280;26301;42.832;23.918;2023-02-13T05:06:12;94832.25;;;-5.13;89.78
40592;BME280;26301;42.832;23.918;2023-02-13T05:08:38;94828.34;;;-5.17;90.06
40592;BME280;26301;42.832;23.918;2023-02-13T05:11:04;94846.38;;;-5.10;90.37
40592;BME280;26301;42.832;23.918;2023-02-13T05:13:30;94829.63;;;-5.24;90.45
40592;BME280;26301;42.832;23.918;2023-02-13T05:15:55;94855.06;;;-5.01;90.14
40592;BME280;26301;42.832;23.918;2023-02-13T05:18:21;94865.75;;;-4.98;88.75
40592;BME280;26301;42.832;23.918;2023-02-13T05:20:47;94853.63;;;-5.06;88.55
40592;BME280;26301;42.832;23.918;2023-02-13T05:23:31;94857.78;;;-5.17;89.40
40592;BME280;26301;42.832;23.918;2023-02-13T05:25:57;94869.66;;;-5.19;89.42
40592;BME280;26301;42.832;23.918;2023-02-13T05:28:23;94864.69;;;-5.21;88.76
40592;BME280;26301;42.832;23.918;2023-02-13T05:31:07;94869.66;;;-5.19;89.38
40592;BME280;26301;42.832;23.918;2023-02-13T05:33:33;94868.41;;;-5.26;89.00
40592;BME280;26301;42.832;23.918;2023-02-13T05:35:58;94844.00;;;-5.39;89.46
40592;BME280;26301;42.832;23.918;2023-02-13T05:38:24;94861.28;;;-5.20;88.70
40592;BME280;26301;42.832;23.918;2023-02-13T05:40:50;94863.19;;;-5.23;88.27
40592;BME280;26301;42.832;23.918;2023-02-13T05:43:15;94860.50;;;-5.20;88.35
40592;BME280;26301;42.832;23.918;2023-02-13T05:45:41;94848.56;;;-5.31;87.77
40592;BME280;26301;42.832;23.918;2023-02-13T05:48:07;94848.97;;;-5.24;88.09
40592;BME280;26301;42.832;23.918;2023-02-13T05:50:32;94854.00;;;-5.24;87.34
40592;BME280;26301;42.832;23.918;2023-02-13T05:52:58;94877.22;;;-5.19;89.33
40592;BME280;26301;42.832;23.918;2023-02-13T05:55:24;94858.78;;;-5.20;88.19
40592;BME280;26301;42.832;23.918;2023-02-13T05:57:55;94849.88;;;-5.25;88.91
40592;BME280;26301;42.832;23.918;2023-02-13T06:00:21;94878.84;;;-5.06;88.49
40592;BME280;26301;42.832;23.918;2023-02-13T06:02:46;94877.25;;;-4.94;88.75
40592;BME280;26301;42.832;23.918;2023-02-13T06:05:12;94860.50;;;-5.08;88.71
40592;BME280;26301;42.832;23.918;2023-02-13T06:07:38;94880.88;;;-4.85;88.62
40592;BME280;26301;42.832;23.918;2023-02-13T06:10:04;94864.69;;;-4.81;87.80
40592;BME280;26301;42.832;23.918;2023-02-13T06:12:29;94876.28;;;-4.66;87.71
40592;BME280;26301;42.832;23.918;2023-02-13T06:14:55;94877.41;;;-4.57;87.78
40592;BME280;26301;42.832;23.918;2023-02-13T06:17:20;94877.91;;;-4.39;87.01
40592;BME280;26301;42.832;23.918;2023-02-13T06:19:46;94886.75;;;-4.21;86.12
40592;BME280;26301;42.832;23.918;2023-02-13T06:22:11;94884.91;;;-4.19;85.88
40592;BME280;26301;42.832;23.918;2023-02-13T06:24:37;94891.38;;;-4.02;85.56
40592;BME280;26301;42.832;23.918;2023-02-13T06:27:03;94863.59;;;-4.02;84.59
40592;BME280;26301;42.832;23.918;2023-02-13T06:29:28;94888.09;;;-3.78;84.68
40592;BME280;26301;42.832;23.918;2023-02-13T06:31:55;94866.97;;;-3.77;84.09
40592;BME280;26301;42.832;23.918;2023-02-13T06:34:21;94865.41;;;-3.67;83.43
40592;BME280;26301;42.832;23.918;2023-02-13T06:36:47;94884.16;;;-3.46;83.16
40592;BME280;26301;42.832;23.918;2023-02-13T06:39:13;94861.19;;;-3.42;82.64
40592;BME280;26301;42.832;23.918;2023-02-13T06:41:39;94866.97;;;-3.29;82.18
40592;BME280;26301;42.832;23.918;2023-02-13T06:44:05;94881.81;;;-3.01;81.62
40592;BME280;26301;42.832;23.918;2023-02-13T06:46:32;94879.19;;;-2.88;80.94
40592;BME280;26301;42.832;23.918;2023-02-13T06:48:57;94881.41;;;-2.72;80.82
40592;BME280;26301;42.832;23.918;2023-02-13T06:51:23;94886.53;;;-2.49;80.29
40592;BME280;26301;42.832;23.918;2023-02-13T06:53:49;94878.59;;;-2.34;79.99
40592;BME280;26301;42.832;23.918;2023-02-13T06:56:15;94845.59;;;-2.43;79.31
40592;BME280;26301;42.832;23.918;2023-02-13T06:58:40;94885.06;;;-2.07;78.94
40592;BME280;26301;42.832;23.918;2023-02-13T07:01:06;94878.69;;;-1.90;78.66
40592;BME280;26301;42.832;23.918;2023-02-13T07:03:32;94877.75;;;-1.67;79.12
40592;BME280;26301;42.832;23.918;2023-02-13T07:05:58;94878.63;;;-1.45;78.47
40592;BME280;26301;42.832;23.918;2023-02-13T07:08:23;94870.28;;;-1.36;77.59
40592;BME280;26301;42.832;23.918;2023-02-13T07:10:49;94861.25;;;-1.18;77.44
40592;BME280;26301;42.832;23.918;2023-02-13T07:13:14;94882.38;;;-0.96;77.17
40592;BME280;26301;42.832;23.918;2023-02-13T07:15:40;94875.03;;;-0.78;75.47
40592;BME280;26301;42.832;23.918;2023-02-13T07:18:07;94885.84;;;-0.55;74.72
40592;BME280;26301;42.832;23.918;2023-02-13T07:20:33;94894.75;;;-0.40;74.52
40592;BME280;26301;42.832;23.918;2023-02-13T07:22:59;94867.63;;;-0.39;74.03
40592;BME280;26301;42.832;23.918;2023-02-13T07:25:26;94891.69;;;-0.13;74.17
40592;BME280;26301;42.832;23.918;2023-02-13T07:27:52;94883.69;;;-0.08;74.36
40592;BME280;26301;42.832;23.918;2023-02-13T07:30:18;94881.47;;;0.08;73.34
40592;BME280;26301;42.832;23.918;2023-02-13T07:32:43;94891.28;;;0.22;72.48
40592;BME280;26301;42.832;23.918;2023-02-13T07:35:09;94873.25;;;0.26;71.70
40592;BME280;26301;42.832;23.918;2023-02-13T07:37:35;94885.47;;;0.51;74.01
40592;BME280;26301;42.832;23.918;2023-02-13T07:40:00;94863.16;;;0.55;74.44
40592;BME280;26301;42.832;23.918;2023-02-13T07:42:31;94867.31;;;0.75;71.98
40592;BME280;26301;42.832;23.918;2023-02-13T07:44:57;94865.59;;;0.95;71.39
40592;BME280;26301;42.832;23.918;2023-02-13T07:47:23;94869.22;;;1.12;69.97
40592;BME280;26301;42.832;23.918;2023-02-13T07:49:48;94870.94;;;1.21;69.10
40592;BME280;26301;42.832;23.918;2023-02-13T07:52:14;94877.50;;;1.33;69.08
40592;BME280;26301;42.832;23.918;2023-02-13T07:54:40;94872.63;;;1.50;66.28
40592;BME280;26301;42.832;23.918;2023-02-13T07:57:12;94862.00;;;1.64;66.67
40592;BME280;26301;42.832;23.918;2023-02-13T07:59:38;94870.69;;;1.71;64.52
40592;BME280;26301;42.832;23.918;2023-02-13T08:02:03;94845.38;;;1.70;64.69
40592;BME280;26301;42.832;23.918;2023-02-13T08:04:29;94861.13;;;1.93;65.20
40592;BME280;26301;42.832;23.918;2023-02-13T08:06:55;94869.25;;;2.06;64.07
40592;BME280;26301;42.832;23.918;2023-02-13T08:09:21;94865.69;;;2.26;61.62
40592;BME280;26301;42.832;23.918;2023-02-13T08:12:06;94859.72;;;2.36;62.89
40592;BME280;26301;42.832;23.918;2023-02-13T08:14:33;94842.56;;;2.28;73.16
40592;BME280;26301;42.832;23.918;2023-02-13T08:16:59;94861.22;;;2.56;63.67
40592;BME280;26301;42.832;23.918;2023-02-13T08:19:25;94841.16;;;2.61;61.41
40592;BME280;26301;42.832;23.918;2023-02-13T08:21:51;94864.94;;;2.80;60.89
40592;BME280;26301;42.832;23.918;2023-02-13T08:24:17;94855.47;;;2.90;60.05
40592;BME280;26301;42.832;23.918;2023-02-13T08:26:43;94836.81;;;2.89;58.22
40592;BME280;26301;42.832;23.918;2023-02-13T08:29:09;94845.34;;;2.98;58.60
40592;BME280;26301;42.832;23.918;2023-02-13T08:31:36;94821.63;;;3.06;57.37
40592;BME280;26301;42.832;23.918;2023-02-13T08:34:01;94859.50;;;3.36;58.50
40592;BME280;26301;42.832;23.918;2023-02-13T08:36:27;94852.59;;;3.47;57.91
40592;BME280;26301;42.832;23.918;2023-02-13T08:38:53;94855.69;;;3.58;54.83
40592;BME280;26301;42.832;23.918;2023-02-13T08:41:19;94849.81;;;3.66;54.28
40592;BME280;26301;42.832;23.918;2023-02-13T08:43:48;94852.44;;;3.74;54.42
40592;BME280;26301;42.832;23.918;2023-02-13T08:46:15;94850.00;;;3.73;55.39
40592;BME280;26301;42.832;23.918;2023-02-13T08:48:41;94843.66;;;3.77;56.05
40592;BME280;26301;42.832;23.918;2023-02-13T08:51:08;94844.34;;;3.87;54.40
40592;BME280;26301;42.832;23.918;2023-02-13T08:53:35;94828.03;;;3.80;54.96
40592;BME280;26301;42.832;23.918;2023-02-13T08:56:01;94851.16;;;4.04;52.78
40592;BME280;26301;42.832;23.918;2023-02-13T08:58:26;94835.31;;;4.01;52.72
40592;BME280;26301;42.832;23.918;2023-02-13T09:00:52;94854.22;;;4.16;53.71
40592;BME280;26301;42.832;23.918;2023-02-13T09:03:18;94830.69;;;4.04;51.57
40592;BME280;26301;42.832;23.918;2023-02-13T09:05:43;94837.41;;;4.05;52.09
40592;BME280;26301;42.832;23.918;2023-02-13T09:08:09;94839.03;;;4.06;53.36
40592;BME280;26301;42.832;23.918;2023-02-13T09:10:38;94844.44;;;4.11;55.49
40592;BME280;26301;42.832;23.918;2023-02-13T09:13:04;94838.19;;;4.06;55.10
40592;BME280;26301;42.832;23.918;2023-02-13T09:15:30;94836.97;;;4.18;53.51
40592;BME280;26301;42.832;23.918;2023-02-13T09:17:56;94849.66;;;4.36;54.48
40592;BME280;26301;42.832;23.918;2023-02-13T09:20:22;94842.31;;;4.41;53.39
40592;BME280;26301;42.832;23.918;2023-02-13T09:22:47;94850.31;;;4.38;54.14
40592;BME280;26301;42.832;23.918;2023-02-13T09:25:13;94844.22;;;4.39;53.20
40592;BME280;26301;42.832;23.918;2023-02-13T09:27:39;94834.81;;;4.40;52.90
40592;BME280;26301;42.832;23.918;2023-02-13T09:30:06;94844.75;;;4.51;51.92
40592;BME280;26301;42.832;23.918;2023-02-13T09:32:33;94843.97;;;4.58;52.14
40592;BME280;26301;42.832;23.918;2023-02-13T09:34:59;94849.25;;;4.57;51.53
40592;BME280;26301;42.832;23.918;2023-02-13T09:37:25;94827.16;;;4.48;51.09
40592;BME280;26301;42.832;23.918;2023-02-13T09:39:51;94842.53;;;4.56;52.11
40592;BME280;26301;42.832;23.918;2023-02-13T09:42:21;94840.44;;;4.59;52.34
40592;BME280;26301;42.832;23.918;2023-02-13T09:44:52;94832.00;;;4.67;50.67
40592;BME280;26301;42.832;23.918;2023-02-13T09:47:31;94824.97;;;4.61;52.45
40592;BME280;26301;42.832;23.918;2023-02-13T09:52:37;94810.22;;;4.63;53.01
40592;BME280;26301;42.832;23.918;2023-02-13T09:55:13;94807.03;;;4.77;51.42
40592;BME280;26301;42.832;23.918;2023-02-13T10:00:38;94788.16;;;4.62;52.54
40592;BME280;26301;42.832;23.918;2023-02-13T10:06:04;94804.31;;;4.87;51.39
40592;BME280;26301;42.832;23.918;2023-02-13T10:14:03;94790.25;;;4.75;51.39
40592;BME280;26301;42.832;23.918;2023-02-13T10:16:34;94785.31;;;4.81;51.22
40592;BME280;26301;42.832;23.918;2023-02-13T10:19:15;94790.44;;;4.98;49.05
40592;BME280;26301;42.832;23.918;2023-02-13T10:21:57;94767.06;;;4.76;51.80
40592;BME280;26301;42.832;23.918;2023-02-13T10:35:17;94759.88;;;4.88;50.11
40592;BME280;26301;42.832;23.918;2023-02-13T10:37:43;94756.47;;;4.96;50.38
40592;BME280;26301;42.832;23.918;2023-02-13T10:40:10;94743.88;;;5.02;49.07
40592;BME280;26301;42.832;23.918;2023-02-13T10:42:45;94746.53;;;5.17;48.23
40592;BME280;26301;42.832;23.918;2023-02-13T10:51:43;94748.47;;;5.15;49.18
40592;BME280;26301;42.832;23.918;2023-02-13T10:54:30;94747.69;;;5.15;48.94
40592;BME280;26301;42.832;23.918;2023-02-13T10:57:20;94743.69;;;5.12;48.60
40592;BME280;26301;42.832;23.918;2023-02-13T11:02:36;94742.84;;;5.20;49.62
40592;BME280;26301;42.832;23.918;2023-02-13T11:07:41;94725.88;;;5.27;49.02
40592;BME280;26301;42.832;23.918;2023-02-13T11:10:22;94710.06;;;5.15;49.59
40592;BME280;26301;42.832;23.918;2023-02-13T11:12:48;94732.28;;;5.31;49.00
40592;BME280;26301;42.832;23.918;2023-02-13T11:18:13;94716.91;;;5.31;50.25
40592;BME280;26301;42.832;23.918;2023-02-13T11:20:39;94698.00;;;5.32;49.38
40592;BME280;26301;42.832;23.918;2023-02-13T11:26:01;94682.53;;;5.01;50.40
40592;BME280;26301;42.832;23.918;2023-02-13T11:28:34;94703.78;;;5.26;50.25
40592;BME280;26301;42.832;23.918;2023-02-13T11:31:15;94695.63;;;5.14;50.16
40592;BME280;26301;42.832;23.918;2023-02-13T11:33:45;94687.00;;;5.07;51.31
40592;BME280;26301;42.832;23.918;2023-02-13T11:36:16;94700.44;;;5.17;51.19
40592;BME280;26301;42.832;23.918;2023-02-13T11:38:45;94691.34;;;5.07;50.76
40592;BME280;26301;42.832;23.918;2023-02-13T11:41:21;94697.56;;;5.12;51.45
40592;BME280;26301;42.832;23.918;2023-02-13T11:43:55;94699.97;;;5.14;52.07
40592;BME280;26301;42.832;23.918;2023-02-13T11:46:27;94692.78;;;5.01;51.66
40592;BME280;26301;42.832;23.918;2023-02-13T11:51:43;94680.16;;;4.99;50.55
40592;BME280;26301;42.832;23.918;2023-02-13T11:54:38;94691.47;;;5.13;51.79
40592;BME280;26301;42.832;23.918;2023-02-13T11:59:43;94682.66;;;5.24;51.45
40592;BME280;26301;42.832;23.918;2023-02-13T12:04:43;94662.19;;;5.16;50.21
40592;BME280;26301;42.832;23.918;2023-02-13T12:09:53;94673.03;;;5.26;49.93
40592;BME280;26301;42.832;23.918;2023-02-13T12:12:31;94654.66;;;5.14;50.05
40592;BME280;26301;42.832;23.918;2023-02-13T12:15:01;94665.22;;;5.19;51.86
40592;BME280;26301;42.832;23.918;2023-02-13T12:17:30;94651.44;;;5.20;51.09
40592;BME280;26301;42.832;23.918;2023-02-13T12:19:56;94649.84;;;5.19;51.21
40592;BME280;26301;42.832;23.918;2023-02-13T12:41:21;94634.66;;;5.18;49.91
40592;BME280;26301;42.832;23.918;2023-02-13T13:00:16;94627.56;;;5.20;48.90
40592;BME280;26301;42.832;23.918;2023-02-13T13:02:59;94621.34;;;5.14;48.44
40592;BME280;26301;42.832;23.918;2023-02-13T13:05:43;94605.56;;;5.02;51.19
40592;BME280;26301;42.832;23.918;2023-02-13T13:16:29;94623.31;;;5.04;51.31
40592;BME280;26301;42.832;23.918;2023-02-13T13:19:17;94619.97;;;5.03;52.56
40592;BME280;26301;42.832;23.918;2023-02-13T13:21:50;94620.28;;;5.00;55.70
40592;BME280;26301;42.832;23.918;2023-02-13T13:24:29;94624.63;;;5.00;53.43
40592;BME280;26301;42.832;23.918;2023-02-13T13:26:58;94601.94;;;4.80;56.66
40592;BME280;26301;42.832;23.918;2023-02-13T13:29:44;94620.47;;;4.91;56.25
40592;BME280;26301;42.832;23.918;2023-02-13T13:32:16;94618.06;;;4.89;56.27
40592;BME280;26301;42.832;23.918;2023-02-13T13:34:44;94609.13;;;4.85;53.58
40592;BME280;26301;42.832;23.918;2023-02-13T13:37:27;94618.41;;;4.86;53.94
40592;BME280;26301;42.832;23.918;2023-02-13T13:51:37;94620.06;;;4.54;57.46
40592;BME280;26301;42.832;23.918;2023-02-13T13:57:04;94608.06;;;4.39;60.28
40592;BME280;26301;42.832;23.918;2023-02-13T14:07:44;94590.81;;;4.16;60.49
40592;BME280;26301;42.832;23.918;2023-02-13T14:18:20;94582.81;;;4.11;61.32
40592;BME280;26301;42.832;23.918;2023-02-13T14:26:33;94594.94;;;4.09;63.54
40592;BME280;26301;42.832;23.918;2023-02-13T14:29:26;94594.47;;;4.05;63.36
40592;BME280;26301;42.832;23.918;2023-02-13T14:32:02;94546.69;;;3.65;63.20
40592;BME280;26301;42.832;23.918;2023-02-13T14:34:32;94592.41;;;3.93;63.75
40592;BME280;26301;42.832;23.918;2023-02-13T14:37:20;94579.63;;;3.76;64.06
40592;BME280;26301;42.832;23.918;2023-02-13T14:45:53;94589.16;;;3.50;65.65
40592;BME280;26301;42.832;23.918;2023-02-13T14:48:23;94587.50;;;3.32;65.86
40592;BME280;26301;42.832;23.918;2023-02-13T14:50:53;94595.78;;;3.26;66.64
40592;BME280;26301;42.832;23.918;2023-02-13T14:53:25;94604.22;;;3.27;66.47
40592;BME280;26301;42.832;23.918;2023-02-13T14:55:57;94600.53;;;3.21;67.11
40592;BME280;26301;42.832;23.918;2023-02-13T14:58:30;94589.97;;;3.08;67.23
40592;BME280;26301;42.832;23.918;2023-02-13T15:01:06;94572.66;;;2.93;67.67
40592;BME280;26301;42.832;23.918;2023-02-13T15:03:56;94588.28;;;2.90;68.14
40592;BME280;26301;42.832;23.918;2023-02-13T15:06:36;94589.63;;;2.77;67.95
40592;BME280;26301;42.832;23.918;2023-02-13T15:09:11;94567.22;;;2.54;67.95
40592;BME280;26301;42.832;23.918;2023-02-13T15:11:41;94588.00;;;2.67;68.30
40592;BME280;26301;42.832;23.918;2023-02-13T15:14:15;94576.72;;;2.44;68.96
40592;BME280;26301;42.832;23.918;2023-02-13T15:16:42;94572.78;;;2.32;68.75
40592;BME280;26301;42.832;23.918;2023-02-13T15:19:17;94592.16;;;2.42;69.31
40592;BME280;26301;42.832;23.918;2023-02-13T15:22:54;94584.53;;;2.24;69.97
40592;BME280;26301;42.832;23.918;2023-02-13T15:25:01;94579.97;;;2.10;69.95
40592;BME280;26301;42.832;23.918;2023-02-13T15:27:30;94582.31;;;2.03;70.76
40592;BME280;26301;42.832;23.918;2023-02-13T15:32:33;94587.59;;;1.66;71.80
40592;BME280;26301;42.832;23.918;2023-02-13T15:35:08;94594.47;;;1.56;72.21
40592;BME280;26301;42.832;23.918;2023-02-13T15:37:34;94590.97;;;1.39;72.40
40592;BME280;26301;42.832;23.918;2023-02-13T15:40:21;94575.84;;;1.10;73.72
40592;BME280;26301;42.832;23.918;2023-02-13T15:42:48;94593.34;;;1.23;73.88
40592;BME280;26301;42.832;23.918;2023-02-13T15:45:17;94573.41;;;0.90;74.36
40592;BME280;26301;42.832;23.918;2023-02-13T15:47:45;94598.16;;;0.98;75.22
40592;BME280;26301;42.832;23.918;2023-02-13T15:50:29;94603.28;;;0.88;75.61
40592;BME280;26301;42.832;23.918;2023-02-13T15:52:55;94599.31;;;0.76;75.99
40592;BME280;26301;42.832;23.918;2023-02-13T15:55:27;94582.09;;;0.60;76.62
40592;BME280;26301;42.832;23.918;2023-02-13T15:57:56;94580.25;;;0.53;77.04
40592;BME280;26301;42.832;23.918;2023-02-13T16:00:43;94604.19;;;0.50;77.60
40592;BME280;26301;42.832;23.918;2023-02-13T16:03:14;94607.84;;;0.38;77.87
40592;BME280;26301;42.832;23.918;2023-02-13T16:05:44;94594.44;;;0.36;78.08
40592;BME280;26301;42.832;23.918;2023-02-13T16:11:21;94605.50;;;-0.03;79.87
40592;BME280;26301;42.832;23.918;2023-02-13T16:14:12;94610.53;;;-0.12;80.15
40592;BME280;26301;42.832;23.918;2023-02-13T16:17:02;94615.38;;;-0.19;81.47
40592;BME280;26301;42.832;23.918;2023-02-13T16:25:17;94610.94;;;-0.56;82.63
40592;BME280;26301;42.832;23.918;2023-02-13T16:28:03;94613.09;;;-0.51;82.42